sensor_id;sensor_type;location;lat;lon;timestamp;P1;durP1;ratioP1;P2;durP2;ratioP2
52586;SDS011;38480;52.724;6.436;2023-04-15T00:01:26;20.80;;;9.83;;
52586;SDS011;38480;52.724;6.436;2023-04-15T00:03:53;19.33;;;9.63;;
52586;SDS011;38480;52.724;6.436;2023-04-15T00:06:19;19.57;;;10.50;;
52586;SDS011;38480;52.724;6.436;2023-04-15T00:08:46;18.73;;;10.10;;
52586;SDS011;38480;52.724;6.436;2023-04-15T00:11:12;16.43;;;9.00;;
52586;SDS011;38480;52.724;6.436;2023-04-15T00:13:39;21.47;;;9.87;;
52586;SDS011;38480;52.724;6.436;2023-04-15T00:16:05;17.87;;;10.83;;
52586;SDS011;38480;52.724;6.436;2023-04-15T00:18:32;17.10;;;10.20;;
52586;SDS011;38480;52.724;6.436;2023-04-15T00:20:58;23.53;;;10.87;;
52586;SDS011;38480;52.724;6.436;2023-04-15T00:23:24;24.80;;;11.83;;
52586;SDS011;38480;52.724;6.436;2023-04-15T00:25:50;15.57;;;10.23;;
52586;SDS011;38480;52.724;6.436;2023-04-15T00:28:17;18.80;;;10.47;;
52586;SDS011;38480;52.724;6.436;2023-04-15T00:30:43;21.07;;;11.07;;
52586;SDS011;38480;52.724;6.436;2023-04-15T00:33:09;22.13;;;10.20;;
52586;SDS011;38480;52.724;6.436;2023-04-15T00:35:35;23.47;;;11.70;;
52586;SDS011;38480;52.724;6.436;2023-04-15T00:38:02;21.60;;;10.27;;
52586;SDS011;38480;52.724;6.436;2023-04-15T00:40:28;20.83;;;10.73;;
52586;SDS011;38480;52.724;6.436;2023-04-15T00:42:55;23.07;;;9.93;;
52586;SDS011;38480;52.724;6.436;2023-04-15T00:45:21;20.20;;;10.27;;
52586;SDS011;38480;52.724;6.436;2023-04-15T00:47:48;18.47;;;10.10;;
52586;SDS011;38480;52.724;6.436;2023-04-15T00:50:14;24.63;;;11.03;;
52586;SDS011;38480;52.724;6.436;2023-04-15T00:52:40;18.00;;;10.60;;
52586;SDS011;38480;52.724;6.436;2023-04-15T00:55:06;23.93;;;11.00;;
52586;SDS011;38480;52.724;6.436;2023-04-15T00:57:32;25.90;;;11.67;;
52586;SDS011;38480;52.724;6.436;2023-04-15T01:00:00;20.40;;;11.50;;
52586;SDS011;38480;52.724;6.436;2023-04-15T01:02:26;25.13;;;11.37;;
52586;SDS011;38480;52.724;6.436;2023-04-15T01:04:52;19.47;;;11.13;;
52586;SDS011;38480;52.724;6.436;2023-04-15T01:07:18;22.10;;;11.47;;
52586;SDS011;38480;52.724;6.436;2023-04-15T01:09:44;20.73;;;11.53;;
52586;SDS011;38480;52.724;6.436;2023-04-15T01:12:12;20.47;;;11.23;;
52586;SDS011;38480;52.724;6.436;2023-04-15T01:14:39;20.87;;;11.17;;
52586;SDS011;38480;52.724;6.436;2023-04-15T01:17:05;20.27;;;10.97;;
52586;SDS011;38480;52.724;6.436;2023-04-15T01:19:31;20.80;;;11.67;;
52586;SDS011;38480;52.724;6.436;2023-04-15T01:21:57;28.47;;;11.30;;
52586;SDS011;38480;52.724;6.436;2023-04-15T01:24:24;22.13;;;11.20;;
52586;SDS011;38480;52.724;6.436;2023-04-15T01:26:51;27.87;;;11.00;;
52586;SDS011;38480;52.724;6.436;2023-04-15T01:29:17;24.37;;;11.10;;
52586;SDS011;38480;52.724;6.436;2023-04-15T01:31:50;28.53;;;12.50;;
52586;SDS011;38480;52.724;6.436;2023-04-15T01:36:42;23.47;;;11.37;;
52586;SDS011;38480;52.724;6.436;2023-04-15T01:39:08;25.07;;;12.90;;
52586;SDS011;38480;52.724;6.436;2023-04-15T01:41:35;23.73;;;12.37;;
52586;SDS011;38480;52.724;6.436;2023-04-15T01:44:00;27.73;;;12.70;;
52586;SDS011;38480;52.724;6.436;2023-04-15T01:46:26;23.30;;;13.53;;
52586;SDS011;38480;52.724;6.436;2023-04-15T01:48:52;22.77;;;11.73;;
52586;SDS011;38480;52.724;6.436;2023-04-15T01:51:19;21.47;;;12.77;;
52586;SDS011;38480;52.724;6.436;2023-04-15T01:53:45;25.37;;;13.57;;
52586;SDS011;38480;52.724;6.436;2023-04-15T01:56:11;25.43;;;12.67;;
52586;SDS011;38480;52.724;6.436;2023-04-15T01:58:37;29.77;;;12.90;;
52586;SDS011;38480;52.724;6.436;2023-04-15T02:01:04;24.43;;;12.37;;
52586;SDS011;38480;52.724;6.436;2023-04-15T02:03:30;28.43;;;14.57;;
52586;SDS011;38480;52.724;6.436;2023-04-15T02:05:57;25.63;;;12.60;;
52586;SDS011;38480;52.724;6.436;2023-04-15T02:08:23;31.87;;;14.43;;
52586;SDS011;38480;52.724;6.436;2023-04-15T02:10:49;38.07;;;14.80;;
52586;SDS011;38480;52.724;6.436;2023-04-15T02:13:15;25.70;;;12.23;;
52586;SDS011;38480;52.724;6.436;2023-04-15T02:15:45;20.97;;;10.90;;
52586;SDS011;38480;52.724;6.436;2023-04-15T02:18:11;21.87;;;12.43;;
52586;SDS011;38480;52.724;6.436;2023-04-15T02:20:37;19.87;;;11.93;;
52586;SDS011;38480;52.724;6.436;2023-04-15T02:23:03;28.70;;;12.33;;
52586;SDS011;38480;52.724;6.436;2023-04-15T02:25:31;24.00;;;12.07;;
52586;SDS011;38480;52.724;6.436;2023-04-15T02:27:57;21.07;;;11.07;;
52586;SDS011;38480;52.724;6.436;2023-04-15T02:30:23;22.37;;;11.67;;
52586;SDS011;38480;52.724;6.436;2023-04-15T02:32:50;23.50;;;11.43;;
52586;SDS011;38480;52.724;6.436;2023-04-15T02:35:16;20.73;;;11.70;;
52586;SDS011;38480;52.724;6.436;2023-04-15T02:37:43;22.53;;;11.83;;
52586;SDS011;38480;52.724;6.436;2023-04-15T02:40:10;26.40;;;12.60;;
52586;SDS011;38480;52.724;6.436;2023-04-15T02:42:39;33.47;;;13.97;;
52586;SDS011;38480;52.724;6.436;2023-04-15T02:45:06;28.70;;;13.47;;
52586;SDS011;38480;52.724;6.436;2023-04-15T02:47:32;35.90;;;12.67;;
52586;SDS011;38480;52.724;6.436;2023-04-15T02:49:58;29.13;;;13.40;;
52586;SDS011;38480;52.724;6.436;2023-04-15T02:52:25;34.83;;;14.53;;
52586;SDS011;38480;52.724;6.436;2023-04-15T02:54:51;37.73;;;14.90;;
52586;SDS011;38480;52.724;6.436;2023-04-15T02:57:21;26.07;;;14.10;;
52586;SDS011;38480;52.724;6.436;2023-04-15T02:59:47;28.97;;;15.20;;
52586;SDS011;38480;52.724;6.436;2023-04-15T03:02:13;30.37;;;15.33;;
52586;SDS011;38480;52.724;6.436;2023-04-15T03:04:39;31.53;;;14.37;;
52586;SDS011;38480;52.724;6.436;2023-04-15T03:07:05;33.63;;;15.37;;
52586;SDS011;38480;52.724;6.436;2023-04-15T03:09:31;33.57;;;15.87;;
52586;SDS011;38480;52.724;6.436;2023-04-15T03:11:57;29.97;;;15.13;;
52586;SDS011;38480;52.724;6.436;2023-04-15T03:14:23;30.83;;;14.67;;
52586;SDS011;38480;52.724;6.436;2023-04-15T03:16:49;34.83;;;15.20;;
52586;SDS011;38480;52.724;6.436;2023-04-15T03:19:16;33.40;;;16.50;;
52586;SDS011;38480;52.724;6.436;2023-04-15T03:21:42;39.83;;;16.20;;
52586;SDS011;38480;52.724;6.436;2023-04-15T03:24:08;32.97;;;16.33;;
52586;SDS011;38480;52.724;6.436;2023-04-15T03:26:34;35.07;;;16.37;;
52586;SDS011;38480;52.724;6.436;2023-04-15T03:29:00;30.00;;;15.43;;
52586;SDS011;38480;52.724;6.436;2023-04-15T03:31:26;39.93;;;16.93;;
52586;SDS011;38480;52.724;6.436;2023-04-15T03:33:52;35.73;;;17.60;;
52586;SDS011;38480;52.724;6.436;2023-04-15T03:36:18;39.63;;;16.50;;
52586;SDS011;38480;52.724;6.436;2023-04-15T03:38:45;40.80;;;17.53;;
52586;SDS011;38480;52.724;6.436;2023-04-15T03:41:11;42.67;;;18.57;;
52586;SDS011;38480;52.724;6.436;2023-04-15T03:43:37;35.67;;;18.03;;
52586;SDS011;38480;52.724;6.436;2023-04-15T03:46:03;42.40;;;18.70;;
52586;SDS011;38480;52.724;6.436;2023-04-15T03:48:29;41.50;;;18.10;;
52586;SDS011;38480;52.724;6.436;2023-04-15T03:50:55;44.03;;;19.80;;
52586;SDS011;38480;52.724;6.436;2023-04-15T03:53:21;43.13;;;19.60;;
52586;SDS011;38480;52.724;6.436;2023-04-15T03:55:47;44.47;;;18.80;;
52586;SDS011;38480;52.724;6.436;2023-04-15T03:58:14;52.30;;;21.60;;
52586;SDS011;38480;52.724;6.436;2023-04-15T04:00:40;45.70;;;20.53;;
52586;SDS011;38480;52.724;6.436;2023-04-15T04:03:06;46.93;;;20.17;;
52586;SDS011;38480;52.724;6.436;2023-04-15T04:05:32;60.10;;;21.47;;
52586;SDS011;38480;52.724;6.436;2023-04-15T04:08:01;50.47;;;20.40;;
52586;SDS011;38480;52.724;6.436;2023-04-15T04:10:27;49.80;;;21.13;;
52586;SDS011;38480;52.724;6.436;2023-04-15T04:12:53;56.03;;;21.97;;
52586;SDS011;38480;52.724;6.436;2023-04-15T04:15:19;44.97;;;21.60;;
52586;SDS011;38480;52.724;6.436;2023-04-15T04:17:45;55.43;;;21.53;;
52586;SDS011;38480;52.724;6.436;2023-04-15T04:20:11;56.27;;;22.77;;
52586;SDS011;38480;52.724;6.436;2023-04-15T04:22:37;67.33;;;27.17;;
52586;SDS011;38480;52.724;6.436;2023-04-15T04:25:04;58.97;;;24.43;;
52586;SDS011;38480;52.724;6.436;2023-04-15T04:27:30;60.43;;;23.97;;
52586;SDS011;38480;52.724;6.436;2023-04-15T04:29:56;58.67;;;24.87;;
52586;SDS011;38480;52.724;6.436;2023-04-15T04:32:22;53.90;;;24.30;;
52586;SDS011;38480;52.724;6.436;2023-04-15T04:34:48;61.63;;;24.20;;
52586;SDS011;38480;52.724;6.436;2023-04-15T04:37:14;51.17;;;21.93;;
52586;SDS011;38480;52.724;6.436;2023-04-15T04:39:40;57.43;;;23.43;;
52586;SDS011;38480;52.724;6.436;2023-04-15T04:42:06;54.90;;;23.00;;
52586;SDS011;38480;52.724;6.436;2023-04-15T04:44:32;61.47;;;24.87;;
52586;SDS011;38480;52.724;6.436;2023-04-15T04:46:58;56.97;;;23.10;;
52586;SDS011;38480;52.724;6.436;2023-04-15T04:49:24;50.97;;;20.40;;
52586;SDS011;38480;52.724;6.436;2023-04-15T04:51:50;50.93;;;22.93;;
52586;SDS011;38480;52.724;6.436;2023-04-15T04:54:17;59.10;;;22.80;;
52586;SDS011;38480;52.724;6.436;2023-04-15T04:56:43;66.33;;;24.80;;
52586;SDS011;38480;52.724;6.436;2023-04-15T04:59:09;56.40;;;22.80;;
52586;SDS011;38480;52.724;6.436;2023-04-15T05:01:35;67.20;;;23.47;;
52586;SDS011;38480;52.724;6.436;2023-04-15T05:04:01;63.57;;;24.53;;
52586;SDS011;38480;52.724;6.436;2023-04-15T05:06:28;60.50;;;24.43;;
52586;SDS011;38480;52.724;6.436;2023-04-15T05:08:55;62.93;;;25.27;;
52586;SDS011;38480;52.724;6.436;2023-04-15T05:11:21;63.47;;;24.07;;
52586;SDS011;38480;52.724;6.436;2023-04-15T05:13:47;54.90;;;23.37;;
52586;SDS011;38480;52.724;6.436;2023-04-15T05:16:13;70.87;;;27.43;;
52586;SDS011;38480;52.724;6.436;2023-04-15T05:18:39;66.47;;;25.80;;
52586;SDS011;38480;52.724;6.436;2023-04-15T05:21:05;68.10;;;25.27;;
52586;SDS011;38480;52.724;6.436;2023-04-15T05:23:31;64.37;;;25.07;;
52586;SDS011;38480;52.724;6.436;2023-04-15T05:25:58;59.47;;;24.87;;
52586;SDS011;38480;52.724;6.436;2023-04-15T05:28:24;65.27;;;27.07;;
52586;SDS011;38480;52.724;6.436;2023-04-15T05:30:51;70.60;;;25.00;;
52586;SDS011;38480;52.724;6.436;2023-04-15T05:33:17;59.73;;;24.50;;
52586;SDS011;38480;52.724;6.436;2023-04-15T05:35:43;60.77;;;25.80;;
52586;SDS011;38480;52.724;6.436;2023-04-15T05:38:09;69.93;;;27.97;;
52586;SDS011;38480;52.724;6.436;2023-04-15T05:40:35;68.27;;;26.57;;
52586;SDS011;38480;52.724;6.436;2023-04-15T05:43:01;71.63;;;26.50;;
52586;SDS011;38480;52.724;6.436;2023-04-15T05:45:27;79.20;;;28.27;;
52586;SDS011;38480;52.724;6.436;2023-04-15T05:47:53;66.47;;;27.73;;
52586;SDS011;38480;52.724;6.436;2023-04-15T05:50:20;60.87;;;25.47;;
52586;SDS011;38480;52.724;6.436;2023-04-15T05:52:46;61.50;;;26.37;;
52586;SDS011;38480;52.724;6.436;2023-04-15T05:55:12;69.10;;;28.43;;
52586;SDS011;38480;52.724;6.436;2023-04-15T05:57:38;68.37;;;28.00;;
52586;SDS011;38480;52.724;6.436;2023-04-15T06:00:05;71.33;;;28.33;;
52586;SDS011;38480;52.724;6.436;2023-04-15T06:02:31;70.03;;;28.63;;
52586;SDS011;38480;52.724;6.436;2023-04-15T06:04:57;78.53;;;29.03;;
52586;SDS011;38480;52.724;6.436;2023-04-15T06:07:24;76.10;;;29.43;;
52586;SDS011;38480;52.724;6.436;2023-04-15T06:09:50;77.03;;;28.23;;
52586;SDS011;38480;52.724;6.436;2023-04-15T06:12:16;77.97;;;28.63;;
52586;SDS011;38480;52.724;6.436;2023-04-15T06:14:42;63.53;;;28.17;;
52586;SDS011;38480;52.724;6.436;2023-04-15T06:17:08;74.80;;;28.17;;
52586;SDS011;38480;52.724;6.436;2023-04-15T06:19:34;68.80;;;27.60;;
52586;SDS011;38480;52.724;6.436;2023-04-15T06:22:03;77.40;;;28.30;;
52586;SDS011;38480;52.724;6.436;2023-04-15T06:24:31;68.47;;;27.73;;
52586;SDS011;38480;52.724;6.436;2023-04-15T06:26:57;78.53;;;29.17;;
52586;SDS011;38480;52.724;6.436;2023-04-15T06:29:23;62.83;;;26.47;;
52586;SDS011;38480;52.724;6.436;2023-04-15T06:31:49;64.77;;;27.27;;
52586;SDS011;38480;52.724;6.436;2023-04-15T06:34:16;60.90;;;25.73;;
52586;SDS011;38480;52.724;6.436;2023-04-15T06:36:42;62.70;;;27.07;;
52586;SDS011;38480;52.724;6.436;2023-04-15T06:39:08;71.10;;;29.87;;
52586;SDS011;38480;52.724;6.436;2023-04-15T06:41:34;61.33;;;27.43;;
52586;SDS011;38480;52.724;6.436;2023-04-15T06:44:00;66.73;;;28.43;;
52586;SDS011;38480;52.724;6.436;2023-04-15T06:46:26;61.10;;;27.93;;
52586;SDS011;38480;52.724;6.436;2023-04-15T06:48:52;61.27;;;28.07;;
52586;SDS011;38480;52.724;6.436;2023-04-15T06:51:18;56.40;;;26.63;;
52586;SDS011;38480;52.724;6.436;2023-04-15T06:53:45;65.20;;;27.20;;
52586;SDS011;38480;52.724;6.436;2023-04-15T06:56:11;57.17;;;26.30;;
52586;SDS011;38480;52.724;6.436;2023-04-15T06:58:37;55.63;;;27.07;;
52586;SDS011;38480;52.724;6.436;2023-04-15T07:01:03;50.80;;;24.37;;
52586;SDS011;38480;52.724;6.436;2023-04-15T07:03:29;56.17;;;26.47;;
52586;SDS011;38480;52.724;6.436;2023-04-15T07:05:55;53.03;;;25.67;;
52586;SDS011;38480;52.724;6.436;2023-04-15T07:08:22;52.73;;;24.43;;
52586;SDS011;38480;52.724;6.436;2023-04-15T07:10:48;52.57;;;23.80;;
52586;SDS011;38480;52.724;6.436;2023-04-15T07:13:14;46.37;;;23.23;;
52586;SDS011;38480;52.724;6.436;2023-04-15T07:15:40;47.53;;;23.00;;
52586;SDS011;38480;52.724;6.436;2023-04-15T07:18:06;40.53;;;21.00;;
52586;SDS011;38480;52.724;6.436;2023-04-15T07:20:33;39.87;;;21.73;;
52586;SDS011;38480;52.724;6.436;2023-04-15T07:23:00;38.93;;;20.43;;
52586;SDS011;38480;52.724;6.436;2023-04-15T07:25:26;32.63;;;19.40;;
52586;SDS011;38480;52.724;6.436;2023-04-15T07:27:52;33.47;;;19.33;;
52586;SDS011;38480;52.724;6.436;2023-04-15T07:30:18;31.73;;;18.07;;
52586;SDS011;38480;52.724;6.436;2023-04-15T07:32:44;32.43;;;18.53;;
52586;SDS011;38480;52.724;6.436;2023-04-15T07:35:11;25.35;;;16.95;;
52586;SDS011;38480;52.724;6.436;2023-04-15T07:37:37;24.00;;;15.33;;
52586;SDS011;38480;52.724;6.436;2023-04-15T07:40:03;21.57;;;13.87;;
52586;SDS011;38480;52.724;6.436;2023-04-15T07:42:31;24.87;;;15.07;;
52586;SDS011;38480;52.724;6.436;2023-04-15T07:44:58;22.07;;;13.93;;
52586;SDS011;38480;52.724;6.436;2023-04-15T07:47:24;23.00;;;15.77;;
52586;SDS011;38480;52.724;6.436;2023-04-15T07:49:51;18.63;;;12.37;;
52586;SDS011;38480;52.724;6.436;2023-04-15T07:52:17;17.67;;;12.33;;
52586;SDS011;38480;52.724;6.436;2023-04-15T07:54:44;17.73;;;11.17;;
52586;SDS011;38480;52.724;6.436;2023-04-15T07:57:10;15.13;;;11.03;;
52586;SDS011;38480;52.724;6.436;2023-04-15T07:59:36;14.73;;;10.43;;
52586;SDS011;38480;52.724;6.436;2023-04-15T08:02:02;13.03;;;9.50;;
52586;SDS011;38480;52.724;6.436;2023-04-15T08:04:28;13.17;;;8.87;;
52586;SDS011;38480;52.724;6.436;2023-04-15T08:06:55;13.57;;;8.60;;
52586;SDS011;38480;52.724;6.436;2023-04-15T08:09:22;12.00;;;7.70;;
52586;SDS011;38480;52.724;6.436;2023-04-15T08:11:48;13.80;;;8.47;;
52586;SDS011;38480;52.724;6.436;2023-04-15T08:14:15;11.93;;;8.00;;
52586;SDS011;38480;52.724;6.436;2023-04-15T08:16:41;11.53;;;8.20;;
52586;SDS011;38480;52.724;6.436;2023-04-15T08:19:07;10.07;;;7.53;;
52586;SDS011;38480;52.724;6.436;2023-04-15T08:21:33;10.83;;;7.57;;
52586;SDS011;38480;52.724;6.436;2023-04-15T08:23:59;9.90;;;6.97;;
52586;SDS011;38480;52.724;6.436;2023-04-15T08:26:26;9.50;;;6.13;;
52586;SDS011;38480;52.724;6.436;2023-04-15T08:28:52;8.50;;;6.33;;
52586;SDS011;38480;52.724;6.436;2023-04-15T08:31:18;10.23;;;6.17;;
52586;SDS011;38480;52.724;6.436;2023-04-15T08:33:44;8.50;;;6.00;;
52586;SDS011;38480;52.724;6.436;2023-04-15T08:36:11;8.77;;;5.57;;
52586;SDS011;38480;52.724;6.436;2023-04-15T08:38:37;8.40;;;4.83;;
52586;SDS011;38480;52.724;6.436;2023-04-15T08:41:09;7.80;;;4.63;;
52586;SDS011;38480;52.724;6.436;2023-04-15T08:43:41;8.53;;;4.60;;
52586;SDS011;38480;52.724;6.436;2023-04-15T08:46:08;5.77;;;4.10;;
52586;SDS011;38480;52.724;6.436;2023-04-15T08:48:35;7.27;;;4.63;;
52586;SDS011;38480;52.724;6.436;2023-04-15T08:51:02;5.40;;;3.90;;
52586;SDS011;38480;52.724;6.436;2023-04-15T08:53:28;7.50;;;3.93;;
52586;SDS011;38480;52.724;6.436;2023-04-15T08:55:55;7.83;;;3.30;;
52586;SDS011;38480;52.724;6.436;2023-04-15T08:58:22;8.23;;;3.70;;
52586;SDS011;38480;52.724;6.436;2023-04-15T09:00:49;7.50;;;3.40;;
52586;SDS011;38480;52.724;6.436;2023-04-15T09:03:15;6.30;;;3.30;;
52586;SDS011;38480;52.724;6.436;2023-04-15T09:05:42;6.10;;;3.80;;
52586;SDS011;38480;52.724;6.436;2023-04-15T09:08:08;6.67;;;3.47;;
52586;SDS011;38480;52.724;6.436;2023-04-15T09:10:34;5.03;;;3.63;;
52586;SDS011;38480;52.724;6.436;2023-04-15T09:13:00;5.77;;;4.07;;
52586;SDS011;38480;52.724;6.436;2023-04-15T09:15:26;7.47;;;3.70;;
52586;SDS011;38480;52.724;6.436;2023-04-15T09:17:54;6.50;;;3.77;;
52586;SDS011;38480;52.724;6.436;2023-04-15T09:20:20;5.63;;;3.40;;
52586;SDS011;38480;52.724;6.436;2023-04-15T09:22:47;10.47;;;3.60;;
52586;SDS011;38480;52.724;6.436;2023-04-15T09:30:38;7.17;;;4.23;;
52586;SDS011;38480;52.724;6.436;2023-04-15T09:33:13;8.90;;;4.00;;
52586;SDS011;38480;52.724;6.436;2023-04-15T09:35:39;8.20;;;4.00;;
52586;SDS011;38480;52.724;6.436;2023-04-15T09:38:06;5.07;;;3.13;;
52586;SDS011;38480;52.724;6.436;2023-04-15T09:40:37;5.70;;;3.77;;
52586;SDS011;38480;52.724;6.436;2023-04-15T09:43:04;5.37;;;3.17;;
52586;SDS011;38480;52.724;6.436;2023-04-15T09:45:30;5.17;;;3.80;;
52586;SDS011;38480;52.724;6.436;2023-04-15T09:47:58;6.23;;;4.00;;
52586;SDS011;38480;52.724;6.436;2023-04-15T09:50:27;5.93;;;3.00;;
52586;SDS011;38480;52.724;6.436;2023-04-15T09:52:53;4.90;;;2.47;;
52586;SDS011;38480;52.724;6.436;2023-04-15T09:55:20;7.10;;;2.70;;
52586;SDS011;38480;52.724;6.436;2023-04-15T09:57:46;4.13;;;2.43;;
52586;SDS011;38480;52.724;6.436;2023-04-15T10:00:13;6.10;;;2.83;;
52586;SDS011;38480;52.724;6.436;2023-04-15T10:02:39;5.00;;;2.87;;
52586;SDS011;38480;52.724;6.436;2023-04-15T10:05:06;4.80;;;2.70;;
52586;SDS011;38480;52.724;6.436;2023-04-15T10:07:32;6.47;;;2.87;;
52586;SDS011;38480;52.724;6.436;2023-04-15T10:09:59;5.07;;;2.10;;
52586;SDS011;38480;52.724;6.436;2023-04-15T10:12:26;4.50;;;2.27;;
52586;SDS011;38480;52.724;6.436;2023-04-15T10:14:57;4.30;;;2.20;;
52586;SDS011;38480;52.724;6.436;2023-04-15T10:17:25;3.97;;;1.73;;
52586;SDS011;38480;52.724;6.436;2023-04-15T10:19:52;5.70;;;2.17;;
52586;SDS011;38480;52.724;6.436;2023-04-15T10:22:20;3.63;;;1.87;;
52586;SDS011;38480;52.724;6.436;2023-04-15T10:24:46;4.63;;;1.80;;
52586;SDS011;38480;52.724;6.436;2023-04-15T10:27:14;5.67;;;1.97;;
52586;SDS011;38480;52.724;6.436;2023-04-15T10:29:40;5.30;;;2.17;;
52586;SDS011;38480;52.724;6.436;2023-04-15T10:32:07;4.33;;;1.83;;
52586;SDS011;38480;52.724;6.436;2023-04-15T10:34:33;3.23;;;1.80;;
52586;SDS011;38480;52.724;6.436;2023-04-15T10:37:00;3.00;;;1.70;;
52586;SDS011;38480;52.724;6.436;2023-04-15T10:44:31;7.03;;;1.88;;
52586;SDS011;38480;52.724;6.436;2023-04-15T10:46:57;4.07;;;1.50;;
52586;SDS011;38480;52.724;6.436;2023-04-15T10:49:24;3.87;;;1.60;;
52586;SDS011;38480;52.724;6.436;2023-04-15T10:51:51;3.20;;;1.57;;
52586;SDS011;38480;52.724;6.436;2023-04-15T10:56:50;6.53;;;1.90;;
52586;SDS011;38480;52.724;6.436;2023-04-15T10:59:16;4.70;;;2.23;;
52586;SDS011;38480;52.724;6.436;2023-04-15T11:01:48;4.47;;;1.57;;
52586;SDS011;38480;52.724;6.436;2023-04-15T11:04:34;4.05;;;1.60;;
52586;SDS011;38480;52.724;6.436;2023-04-15T11:07:04;5.33;;;1.87;;
52586;SDS011;38480;52.724;6.436;2023-04-15T11:09:31;4.53;;;1.50;;
52586;SDS011;38480;52.724;6.436;2023-04-15T11:12:07;3.30;;;1.30;;
52586;SDS011;38480;52.724;6.436;2023-04-15T11:14:38;2.77;;;1.30;;
52586;SDS011;38480;52.724;6.436;2023-04-15T11:17:05;3.03;;;1.30;;
52586;SDS011;38480;52.724;6.436;2023-04-15T11:19:35;2.03;;;1.10;;
52586;SDS011;38480;52.724;6.436;2023-04-15T11:22:10;3.80;;;1.83;;
52586;SDS011;38480;52.724;6.436;2023-04-15T11:24:45;3.50;;;1.50;;
52586;SDS011;38480;52.724;6.436;2023-04-15T11:27:21;3.00;;;1.37;;
52586;SDS011;38480;52.724;6.436;2023-04-15T11:29:48;6.47;;;1.63;;
52586;SDS011;38480;52.724;6.436;2023-04-15T11:32:14;2.07;;;1.17;;
52586;SDS011;38480;52.724;6.436;2023-04-15T11:34:40;2.53;;;1.20;;
52586;SDS011;38480;52.724;6.436;2023-04-15T11:37:06;3.67;;;0.90;;
52586;SDS011;38480;52.724;6.436;2023-04-15T11:39:32;3.07;;;1.20;;
52586;SDS011;38480;52.724;6.436;2023-04-15T11:41:58;3.37;;;1.10;;
52586;SDS011;38480;52.724;6.436;2023-04-15T11:44:24;3.50;;;1.43;;
52586;SDS011;38480;52.724;6.436;2023-04-15T11:46:50;2.60;;;1.20;;
52586;SDS011;38480;52.724;6.436;2023-04-15T11:49:29;2.33;;;1.23;;
52586;SDS011;38480;52.724;6.436;2023-04-15T11:51:56;3.53;;;1.20;;
52586;SDS011;38480;52.724;6.436;2023-04-15T11:54:22;3.63;;;1.40;;
52586;SDS011;38480;52.724;6.436;2023-04-15T11:56:51;4.00;;;1.27;;
52586;SDS011;38480;52.724;6.436;2023-04-15T11:59:18;2.97;;;1.40;;
52586;SDS011;38480;52.724;6.436;2023-04-15T12:01:44;4.50;;;2.03;;
52586;SDS011;38480;52.724;6.436;2023-04-15T12:04:15;3.67;;;1.50;;
52586;SDS011;38480;52.724;6.436;2023-04-15T12:06:43;6.27;;;2.40;;
52586;SDS011;38480;52.724;6.436;2023-04-15T12:09:12;9.03;;;2.47;;
52586;SDS011;38480;52.724;6.436;2023-04-15T12:11:48;7.40;;;1.90;;
52586;SDS011;38480;52.724;6.436;2023-04-15T12:16:43;3.40;;;1.30;;
52586;SDS011;38480;52.724;6.436;2023-04-15T12:19:10;8.43;;;1.77;;
52586;SDS011;38480;52.724;6.436;2023-04-15T12:21:37;4.43;;;1.80;;
52586;SDS011;38480;52.724;6.436;2023-04-15T12:24:05;4.93;;;1.60;;
52586;SDS011;38480;52.724;6.436;2023-04-15T12:26:51;3.83;;;1.60;;
52586;SDS011;38480;52.724;6.436;2023-04-15T12:29:18;2.93;;;1.50;;
52586;SDS011;38480;52.724;6.436;2023-04-15T12:31:50;3.67;;;1.43;;
52586;SDS011;38480;52.724;6.436;2023-04-15T12:34:17;6.35;;;1.80;;
52586;SDS011;38480;52.724;6.436;2023-04-15T12:36:44;5.23;;;1.80;;
52586;SDS011;38480;52.724;6.436;2023-04-15T12:39:10;3.73;;;1.43;;
52586;SDS011;38480;52.724;6.436;2023-04-15T12:41:36;4.93;;;1.20;;
52586;SDS011;38480;52.724;6.436;2023-04-15T12:44:02;3.77;;;1.30;;
52586;SDS011;38480;52.724;6.436;2023-04-15T12:46:29;3.67;;;1.47;;
52586;SDS011;38480;52.724;6.436;2023-04-15T12:48:55;4.40;;;1.67;;
52586;SDS011;38480;52.724;6.436;2023-04-15T12:51:21;5.17;;;1.33;;
52586;SDS011;38480;52.724;6.436;2023-04-15T12:53:47;7.63;;;1.47;;
52586;SDS011;38480;52.724;6.436;2023-04-15T12:56:14;5.03;;;1.33;;
52586;SDS011;38480;52.724;6.436;2023-04-15T12:58:43;6.57;;;1.80;;
52586;SDS011;38480;52.724;6.436;2023-04-15T13:01:10;3.00;;;1.30;;
52586;SDS011;38480;52.724;6.436;2023-04-15T13:03:36;5.20;;;1.30;;
52586;SDS011;38480;52.724;6.436;2023-04-15T13:06:02;5.07;;;1.53;;
52586;SDS011;38480;52.724;6.436;2023-04-15T13:08:29;4.70;;;1.20;;
52586;SDS011;38480;52.724;6.436;2023-04-15T13:10:55;5.87;;;1.40;;
52586;SDS011;38480;52.724;6.436;2023-04-15T13:13:21;3.17;;;1.40;;
52586;SDS011;38480;52.724;6.436;2023-04-15T13:15:47;5.87;;;1.87;;
52586;SDS011;38480;52.724;6.436;2023-04-15T13:18:13;6.60;;;2.17;;
52586;SDS011;38480;52.724;6.436;2023-04-15T13:20:40;6.33;;;2.20;;
52586;SDS011;38480;52.724;6.436;2023-04-15T13:23:06;7.03;;;1.60;;
52586;SDS011;38480;52.724;6.436;2023-04-15T13:25:32;6.20;;;1.60;;
52586;SDS011;38480;52.724;6.436;2023-04-15T13:27:58;7.13;;;2.03;;
52586;SDS011;38480;52.724;6.436;2023-04-15T13:30:25;7.73;;;1.60;;
52586;SDS011;38480;52.724;6.436;2023-04-15T13:32:52;12.23;;;1.80;;
52586;SDS011;38480;52.724;6.436;2023-04-15T13:35:18;7.20;;;1.37;;
52586;SDS011;38480;52.724;6.436;2023-04-15T13:37:45;8.87;;;2.17;;
52586;SDS011;38480;52.724;6.436;2023-04-15T13:40:11;7.23;;;1.77;;
52586;SDS011;38480;52.724;6.436;2023-04-15T13:42:37;11.33;;;2.07;;
52586;SDS011;38480;52.724;6.436;2023-04-15T13:45:04;7.90;;;1.80;;
52586;SDS011;38480;52.724;6.436;2023-04-15T13:47:30;6.60;;;1.60;;
52586;SDS011;38480;52.724;6.436;2023-04-15T13:49:56;6.17;;;1.57;;
52586;SDS011;38480;52.724;6.436;2023-04-15T13:52:22;10.50;;;1.87;;
52586;SDS011;38480;52.724;6.436;2023-04-15T13:54:48;8.77;;;1.50;;
52586;SDS011;38480;52.724;6.436;2023-04-15T13:57:14;6.20;;;1.77;;
52586;SDS011;38480;52.724;6.436;2023-04-15T13:59:41;5.37;;;1.13;;
52586;SDS011;38480;52.724;6.436;2023-04-15T14:02:08;13.37;;;1.70;;
52586;SDS011;38480;52.724;6.436;2023-04-15T14:04:34;5.20;;;1.90;;
52586;SDS011;38480;52.724;6.436;2023-04-15T14:07:00;7.83;;;1.63;;
52586;SDS011;38480;52.724;6.436;2023-04-15T14:09:26;7.77;;;1.23;;
52586;SDS011;38480;52.724;6.436;2023-04-15T14:11:52;6.67;;;1.30;;
52586;SDS011;38480;52.724;6.436;2023-04-15T14:14:18;4.10;;;1.30;;
52586;SDS011;38480;52.724;6.436;2023-04-15T14:16:44;8.67;;;1.67;;
52586;SDS011;38480;52.724;6.436;2023-04-15T14:19:11;9.07;;;2.10;;
52586;SDS011;38480;52.724;6.436;2023-04-15T14:21:37;6.93;;;1.40;;
52586;SDS011;38480;52.724;6.436;2023-04-15T14:24:04;8.83;;;2.13;;
52586;SDS011;38480;52.724;6.436;2023-04-15T14:26:30;7.97;;;1.87;;
52586;SDS011;38480;52.724;6.436;2023-04-15T14:28:56;11.33;;;2.60;;
52586;SDS011;38480;52.724;6.436;2023-04-15T14:31:22;8.43;;;1.67;;
52586;SDS011;38480;52.724;6.436;2023-04-15T14:33:48;8.50;;;1.60;;
52586;SDS011;38480;52.724;6.436;2023-04-15T14:36:14;7.10;;;1.70;;
52586;SDS011;38480;52.724;6.436;2023-04-15T14:38:40;12.50;;;2.27;;
52586;SDS011;38480;52.724;6.436;2023-04-15T14:41:06;11.27;;;2.00;;
52586;SDS011;38480;52.724;6.436;2023-04-15T14:43:33;5.30;;;1.70;;
52586;SDS011;38480;52.724;6.436;2023-04-15T14:45:59;8.47;;;1.87;;
52586;SDS011;38480;52.724;6.436;2023-04-15T14:48:25;12.27;;;1.90;;